Time;durP1;ratioP1;P1;durP2;ratioP2;P2;SDS_P1;SDS_P2;PMS_P1;PMS_P2;Temp;Humidity;BMP_temperature;BMP_pressure;BME280_temperature;BME280_humidity;BME280_pressure;Samples;Min_cycle;Max_cycle;Signal;HPM_P1;HPM_P2
2022/12/14 00:00:51;;;;;;;61.03;21.90;;;;;;;-8.82;100.00;97741.31;2628337;28;20105;-91
2022/12/14 00:02:08;;;;;;;57.80;20.80;;;;;;;-8.81;100.00;97742.16;2628409;28;20048;-90
2022/12/14 00:03:24;;;;;;;66.32;22.73;;;;;;;-8.78;100.00;97734.69;2628208;28;20048;-91
2022/12/14 00:04:39;;;;;;;57.08;20.88;;;;;;;-8.88;100.00;97736.00;2628737;28;20138;-90
2022/12/14 00:05:55;;;;;;;59.72;21.05;;;;;;;-9.04;100.00;97734.56;2628296;28;20052;-91
2022/12/14 00:07:11;;;;;;;73.75;24.60;;;;;;;-9.20;100.00;97739.88;2627602;28;20055;-91
2022/12/14 00:08:26;;;;;;;52.83;19.45;;;;;;;-9.25;100.00;97744.75;2628150;28;20044;-91
2022/12/14 00:09:42;;;;;;;60.95;22.73;;;;;;;-9.18;100.00;97745.84;2628682;28;20063;-91
2022/12/14 00:10:58;;;;;;;59.00;21.02;;;;;;;-9.09;100.00;97743.66;2628084;28;20044;-91
2022/12/14 00:12:13;;;;;;;60.45;21.38;;;;;;;-9.02;100.00;97743.09;2627312;28;20063;-92
2022/12/14 00:13:28;;;;;;;63.35;21.58;;;;;;;-9.15;100.00;97740.91;2627612;28;20452;-91
2022/12/14 00:14:45;;;;;;;63.10;21.25;;;;;;;-9.03;100.00;97727.81;2628321;28;20055;-90
2022/12/14 00:16:10;;;;;;;55.47;21.17;;;;;;;-9.06;100.00;97723.50;2627374;28;20484;-91
2022/12/14 00:17:27;;;;;;;64.18;22.70;;;;;;;-9.19;100.00;97723.84;2628118;28;20431;-91
2022/12/14 00:18:43;;;;;;;67.65;23.33;;;;;;;-9.01;100.00;97718.56;2628170;28;20052;-92
2022/12/14 00:19:59;;;;;;;63.03;22.13;;;;;;;-8.99;100.00;97722.91;2628029;28;20482;-93
2022/12/14 00:21:15;;;;;;;71.38;22.88;;;;;;;-9.14;100.00;97728.28;2628213;28;20052;-91
2022/12/14 00:22:30;;;;;;;53.40;20.77;;;;;;;-8.98;100.00;97716.19;2628414;28;20902;-90
2022/12/14 00:23:47;;;;;;;63.45;22.27;;;;;;;-8.94;100.00;97713.81;2628192;28;20043;-92
2022/12/14 00:25:03;;;;;;;69.60;23.77;;;;;;;-9.01;100.00;97714.38;2627759;28;20080;-92
2022/12/14 00:26:23;;;;;;;59.78;19.77;;;;;;;-9.00;100.00;97713.56;2627994;28;20136;-90
2022/12/14 00:27:45;;;;;;;60.13;19.85;;;;;;;-8.90;100.00;97706.31;2627675;28;20048;-91
2022/12/14 00:29:01;;;;;;;49.22;21.27;;;;;;;-8.98;100.00;97704.34;2627367;28;20074;-92
2022/12/14 00:30:19;;;;;;;51.17;21.17;;;;;;;-9.08;100.00;97700.59;2628366;28;20616;-91
2022/12/14 00:31:35;;;;;;;60.70;20.13;;;;;;;-9.02;100.00;97705.06;2628013;28;20048;-91
2022/12/14 00:32:50;;;;;;;51.15;19.45;;;;;;;-9.02;100.00;97699.09;2628288;28;20040;-91
2022/12/14 00:34:06;;;;;;;59.08;20.08;;;;;;;-8.97;100.00;97708.63;2630777;28;20050;-92
2022/12/14 00:35:22;;;;;;;58.88;18.92;;;;;;;-9.06;100.00;97700.69;2628374;28;20090;-92
2022/12/14 00:36:38;;;;;;;48.38;17.92;;;;;;;-8.95;100.00;97691.78;2627523;28;20118;-91
2022/12/14 00:37:53;;;;;;;51.28;20.63;;;;;;;-8.99;100.00;97702.63;2628116;28;20075;-91
2022/12/14 00:39:09;;;;;;;66.72;22.55;;;;;;;-8.96;100.00;97696.81;2628200;28;20044;-94
2022/12/14 00:40:24;;;;;;;46.60;17.67;;;;;;;-8.87;100.00;97693.75;2628238;28;20062;-92
2022/12/14 00:41:40;;;;;;;50.55;18.48;;;;;;;-9.12;100.00;97688.63;2627934;28;20441;-92
2022/12/14 00:42:56;;;;;;;44.33;17.75;;;;;;;-8.98;100.00;97686.59;2627501;28;20047;-91
2022/12/14 00:44:11;;;;;;;50.97;18.33;;;;;;;-9.15;100.00;97687.66;2627660;28;20055;-92
2022/12/14 00:45:27;;;;;;;60.65;20.88;;;;;;;-8.98;100.00;97686.59;2627979;28;20552;-91
2022/12/14 00:46:42;;;;;;;52.15;18.75;;;;;;;-8.99;100.00;97687.41;2627827;28;20494;-90
2022/12/14 00:47:58;;;;;;;50.30;18.23;;;;;;;-8.90;100.00;97688.56;2627948;28;20559;-91
2022/12/14 00:49:14;;;;;;;46.72;18.30;;;;;;;-9.02;100.00;97686.41;2628112;28;20048;-91
2022/12/14 00:50:29;;;;;;;55.50;18.50;;;;;;;-9.09;100.00;97692.94;2628113;28;20131;-92
2022/12/14 00:51:45;;;;;;;48.60;19.25;;;;;;;-8.97;100.00;97688.31;2627372;28;20055;-91
2022/12/14 00:53:01;;;;;;;57.67;19.15;;;;;;;-8.86;100.00;97691.28;2627890;28;20070;-92
2022/12/14 00:54:16;;;;;;;50.95;19.52;;;;;;;-9.08;100.00;97689.59;2627546;28;20106;-91
2022/12/14 00:55:40;;;;;;;51.58;18.88;;;;;;;-8.76;100.00;97684.84;2627559;28;20056;-92
2022/12/14 00:56:55;;;;;;;39.75;13.77;;;;;;;-8.98;100.00;97684.06;2628222;28;20610;-91
2022/12/14 00:58:13;;;;;;;58.88;18.13;;;;;;;-8.89;100.00;97680.13;2627130;28;20055;-91
2022/12/14 00:59:29;;;;;;;50.60;18.63;;;;;;;-8.69;100.00;97678.31;2628182;28;20047;-92
2022/12/14 01:00:46;;;;;;;52.15;17.35;;;;;;;-8.64;100.00;97673.41;2628016;28;20056;-91
2022/12/14 01:02:02;;;;;;;52.47;19.80;;;;;;;-8.74;100.00;97673.09;2627960;28;20044;-91
2022/12/14 01:03:17;;;;;;;64.10;20.48;;;;;;;-8.65;100.00;97677.63;2628198;28;20075;-91
2022/12/14 01:04:33;;;;;;;58.00;19.88;;;;;;;-8.70;100.00;97669.84;2628058;28;20086;-90
2022/12/14 01:05:48;;;;;;;51.63;17.48;;;;;;;-8.71;100.00;97668.09;2627604;28;20533;-92
2022/12/14 01:07:04;;;;;;;48.30;17.98;;;;;;;-8.96;100.00;97664.69;2627937;28;20044;-92
2022/12/14 01:08:20;;;;;;;58.05;20.10;;;;;;;-8.83;100.00;97667.66;2627641;28;20051;-91
2022/12/14 01:09:35;;;;;;;47.63;17.95;;;;;;;-8.72;100.00;97668.91;2626732;28;20134;-92
2022/12/14 01:10:52;;;;;;;54.88;19.67;;;;;;;-8.67;100.00;97667.41;2627753;28;20056;-92
2022/12/14 01:12:08;;;;;;;47.97;18.23;;;;;;;-8.71;100.00;97669.81;2627491;28;20521;-90
2022/12/14 01:13:23;;;;;;;46.35;18.48;;;;;;;-8.78;100.00;97672.91;2628059;28;20044;-91
2022/12/14 01:14:39;;;;;;;51.72;19.15;;;;;;;-8.69;100.00;97669.03;2627924;28;20055;-92
2022/12/14 01:15:54;;;;;;;48.55;19.00;;;;;;;-8.53;100.00;97667.03;2627454;28;20062;-91
2022/12/14 01:17:10;;;;;;;49.47;18.95;;;;;;;-8.44;100.00;97662.25;2627399;28;20059;-91
2022/12/14 01:18:26;;;;;;;52.00;19.52;;;;;;;-8.37;100.00;97670.94;2626730;28;20449;-94
2022/12/14 01:19:41;;;;;;;45.75;17.90;;;;;;;-8.92;100.00;97665.66;2626602;28;20048;-91
2022/12/14 01:21:07;;;;;;;46.17;17.70;;;;;;;-9.12;100.00;97677.59;2627741;28;20051;-92
2022/12/14 01:22:22;;;;;;;52.40;19.10;;;;;;;-8.77;100.00;97675.53;2628062;28;20048;-91
2022/12/14 01:23:38;;;;;;;55.90;18.42;;;;;;;-8.85;100.00;97674.38;2626553;28;20412;-91
2022/12/14 01:24:54;;;;;;;53.70;18.48;;;;;;;-8.75;100.00;97670.47;2627336;28;20136;-92
2022/12/14 01:26:11;;;;;;;52.85;18.15;;;;;;;-8.69;100.00;97673.25;2627833;28;20090;-91
2022/12/14 01:27:26;;;;;;;53.70;19.15;;;;;;;-8.54;100.00;97672.91;2627539;28;20074;-92
2022/12/14 01:28:43;;;;;;;53.42;18.33;;;;;;;-8.51;100.00;97671.34;2627765;28;20044;-90
2022/12/14 01:29:58;;;;;;;54.60;17.63;;;;;;;-8.26;100.00;97671.28;2627764;28;20585;-91
2022/12/14 01:31:17;;;;;;;65.65;19.35;;;;;;;-8.60;100.00;97667.63;2626866;28;20052;-90
2022/12/14 01:32:33;;;;;;;57.95;20.60;;;;;;;-8.61;100.00;97661.69;2627674;28;20440;-91
2022/12/14 01:33:49;;;;;;;45.30;17.60;;;;;;;-8.58;100.00;97666.88;2627620;28;20122;-92
2022/12/14 01:35:04;;;;;;;47.65;17.40;;;;;;;-8.45;100.00;97663.06;2628163;28;20456;-92
2022/12/14 01:36:26;;;;;;;56.72;19.88;;;;;;;-8.34;100.00;97655.78;2627690;28;20052;-90
2022/12/14 01:37:42;;;;;;;55.70;19.23;;;;;;;-8.92;100.00;97660.59;2628080;28;20054;-91
2022/12/14 01:39:00;;;;;;;43.75;18.02;;;;;;;-8.74;100.00;97665.47;2627401;28;20666;-92
2022/12/14 01:40:16;;;;;;;52.10;18.52;;;;;;;-8.85;100.00;97666.75;2627865;28;20052;-91
2022/12/14 01:41:36;;;;;;;55.90;18.45;;;;;;;-8.97;100.00;97668.03;2626787;28;20055;-90
2022/12/14 01:42:51;;;;;;;54.88;18.98;;;;;;;-8.71;100.00;97665.56;2627370;28;20087;-92
2022/12/14 01:44:07;;;;;;;44.47;16.88;;;;;;;-8.78;100.00;97670.38;2627296;28;20997;-91
2022/12/14 01:45:22;;;;;;;41.25;16.27;;;;;;;-8.81;100.00;97669.47;2627028;28;20059;-91
2022/12/14 01:46:47;;;;;;;45.33;16.77;;;;;;;-8.84;100.00;97661.75;2626889;28;20519;-92
2022/12/14 01:48:03;;;;;;;41.63;15.52;;;;;;;-8.89;100.00;97663.22;2626973;28;20605;-92
2022/12/14 01:49:21;;;;;;;44.88;16.02;;;;;;;-8.74;100.00;97665.47;2627106;28;20464;-91
2022/12/14 01:50:41;;;;;;;40.53;15.70;;;;;;;-8.58;100.00;97673.63;2627022;28;20044;-93
2022/12/14 01:52:05;;;;;;;48.13;16.65;;;;;;;-8.59;100.00;97660.09;2627755;28;20498;-91
2022/12/14 01:53:22;;;;;;;44.83;16.75;;;;;;;-8.46;100.00;97666.41;2627572;28;20215;-91
2022/12/14 01:54:46;;;;;;;49.75;16.48;;;;;;;-8.35;100.00;97663.38;2627429;28;20048;-91
2022/12/14 01:56:03;;;;;;;51.38;18.17;;;;;;;-8.21;100.00;97664.72;2627195;28;20253;-91
2022/12/14 01:57:25;;;;;;;53.92;18.40;;;;;;;-8.23;100.00;97668.88;2627434;28;20174;-92
2022/12/14 01:58:41;;;;;;;60.08;18.92;;;;;;;-8.21;100.00;97654.56;2627462;28;20044;-91
2022/12/14 01:59:57;;;;;;;58.10;18.95;;;;;;;-8.47;100.00;97654.53;2627038;28;20052;-91
2022/12/14 02:01:14;;;;;;;55.85;18.33;;;;;;;-8.49;100.00;97651.06;2627147;28;20406;-92
2022/12/14 02:02:31;;;;;;;52.35;19.58;;;;;;;-8.31;100.00;97652.50;2627413;28;20084;-92
2022/12/14 02:03:50;;;;;;;65.18;20.05;;;;;;;-8.39;100.00;97647.16;2626652;28;20141;-90
2022/12/14 02:05:08;;;;;;;54.85;18.60;;;;;;;-8.35;100.00;97648.16;2626935;28;20481;-90
2022/12/14 02:06:36;;;;;;;61.30;19.40;;;;;;;-8.34;100.00;97645.63;2626942;28;20054;-91
2022/12/14 02:07:55;;;;;;;51.13;18.55;;;;;;;-8.57;100.00;97647.44;2626937;28;20100;-91
2022/12/14 02:09:18;;;;;;;64.70;20.42;;;;;;;-8.49;100.00;97637.50;2627360;28;20055;-90
2022/12/14 02:10:34;;;;;;;54.28;19.20;;;;;;;-8.48;100.00;97646.84;2627207;28;20105;-92
2022/12/14 02:12:03;;;;;;;54.90;18.55;;;;;;;-8.42;100.00;97637.75;2627216;28;20056;-92
2022/12/14 02:13:27;;;;;;;56.50;18.02;;;;;;;-8.30;100.00;97639.00;2626976;28;20088;-92
2022/12/14 02:14:44;;;;;;;45.22;16.45;;;;;;;-8.39;100.00;97635.31;2627062;28;20055;-94
2022/12/14 02:15:59;;;;;;;50.45;17.23;;;;;;;-8.35;100.00;97625.28;2627358;28;20506;-92
2022/12/14 02:17:15;;;;;;;45.65;18.92;;;;;;;-8.53;100.00;97623.88;2627214;28;20052;-91
2022/12/14 02:18:32;;;;;;;47.65;17.77;;;;;;;-8.44;100.00;97628.38;2626522;28;20445;-91
2022/12/14 02:19:48;;;;;;;51.65;18.23;;;;;;;-8.39;100.00;97625.16;2626989;28;20044;-91
2022/12/14 02:21:17;;;;;;;45.17;17.73;;;;;;;-8.49;100.00;97630.78;2626563;28;20054;-91
2022/12/14 02:22:57;;;;;;;35.72;13.32;;;;;;;-8.88;100.00;97628.59;2627297;28;20084;-92
2022/12/14 02:24:46;;;;;;;39.17;15.63;;;;;;;-8.52;100.00;97621.41;2627508;28;20102;-92
2022/12/14 02:26:33;;;;;;;25.98;10.27;;;;;;;-8.76;100.00;97623.09;2627092;28;20078;-92
2022/12/14 02:28:13;;;;;;;39.78;16.40;;;;;;;-8.67;100.00;97616.66;2626965;28;20497;-92
2022/12/14 02:29:36;;;;;;;38.08;13.95;;;;;;;-8.79;100.00;97616.25;2627105;28;20048;-91
2022/12/14 02:31:03;;;;;;;42.15;14.00;;;;;;;-8.42;100.00;97609.00;2627264;28;20079;-91
2022/12/14 02:32:34;;;;;;;41.20;15.68;;;;;;;-8.47;100.00;97602.88;2627455;28;20048;-92
2022/12/14 02:33:49;;;;;;;36.10;14.10;;;;;;;-8.66;100.00;97599.75;2630504;28;20043;-91
2022/12/14 02:35:34;;;;;;;38.75;13.52;;;;;;;-8.59;100.00;97606.78;2627255;28;20056;-92
2022/12/14 02:36:59;;;;;;;29.00;12.57;;;;;;;-8.73;100.00;97608.84;2627799;28;20518;-93
2022/12/14 02:38:36;;;;;;;43.28;16.02;;;;;;;-8.66;100.00;97595.56;2627141;28;20740;-92
2022/12/14 02:40:08;;;;;;;41.13;15.25;;;;;;;-8.45;100.00;97598.72;2627516;28;20520;-92
2022/12/14 02:41:46;;;;;;;43.63;15.80;;;;;;;-8.27;100.00;97596.81;2627288;28;20139;-92
2022/12/14 02:43:10;;;;;;;46.75;14.30;;;;;;;-8.35;100.00;97597.38;2627338;28;20055;-92
2022/12/14 02:44:58;;;;;;;40.40;16.63;;;;;;;-8.06;100.00;97597.44;2626830;28;20131;-90
2022/12/14 02:46:49;;;;;;;45.20;15.40;;;;;;;-7.84;100.00;97602.38;2626448;28;20044;-91
2022/12/14 02:48:20;;;;;;;42.38;17.25;;;;;;;-7.96;100.00;97596.94;2626795;28;20486;-92
2022/12/14 02:49:39;;;;;;;37.40;14.07;;;;;;;-7.92;100.00;97598.75;2627168;28;20139;-90
2022/12/14 02:51:07;;;;;;;40.88;14.93;;;;;;;-8.09;100.00;97591.47;2626967;28;20044;-92
2022/12/14 02:53:00;;;;;;;39.22;14.20;;;;;;;-7.94;100.00;97585.13;2626976;28;20458;-90
2022/12/14 02:54:19;;;;;;;;;;;;;;;-7.87;100.00;97576.88;2627185;28;20079;-91
2022/12/14 02:55:42;;;;;;;29.77;13.30;;;;;;;-8.10;100.00;97579.56;2626417;28;19969;-93
2022/12/14 02:57:22;;;;;;;42.22;15.32;;;;;;;-7.96;100.00;97580.00;2626433;28;20513;-92
2022/12/14 02:58:41;;;;;;;36.47;15.45;;;;;;;-7.77;100.00;97578.00;2626127;28;20059;-90
2022/12/14 03:00:01;;;;;;;40.88;15.88;;;;;;;-8.26;100.00;97572.25;2626632;28;20062;-91
2022/12/14 03:01:21;;;;;;;33.38;13.50;;;;;;;-8.23;100.00;97582.53;2626815;28;20138;-92
2022/12/14 03:02:40;;;;;;;38.72;13.10;;;;;;;-8.17;100.00;97587.81;2626792;28;20150;-92
2022/12/14 03:03:56;;;;;;;43.45;15.50;;;;;;;-8.38;100.00;97583.75;2626646;28;20571;-92
2022/12/14 03:05:12;;;;;;;45.63;16.80;;;;;;;-8.16;100.00;97581.91;2626610;28;20059;-91
2022/12/14 03:06:27;;;;;;;34.55;13.15;;;;;;;-8.45;100.00;97576.75;2626925;28;20113;-91
2022/12/14 03:07:45;;;;;;;50.08;16.85;;;;;;;-8.02;100.00;97578.94;2626532;28;20070;-91
2022/12/14 03:09:06;;;;;;;42.28;15.88;;;;;;;-8.23;100.00;97567.31;2627057;28;20907;-92
2022/12/14 03:11:13;;;;;;;37.38;14.75;;;;;;;-8.76;100.00;97565.59;2626815;28;20051;-92
2022/12/14 03:12:28;;;;;;;30.15;11.27;;;;;;;-8.27;100.00;97565.44;2600344;28;20053;-91
2022/12/14 03:14:01;;;;;;;49.17;15.93;;;;;;;-8.65;100.00;97563.41;2625798;28;20063;-93
2022/12/14 03:15:19;;;;;;;30.55;10.95;;;;;;;-8.55;100.00;97562.03;2626286;28;20135;-90
2022/12/14 03:16:46;;;;;;;41.55;14.77;;;;;;;-8.43;100.00;97564.97;2626363;28;20055;-92
2022/12/14 03:18:05;;;;;;;38.30;13.38;;;;;;;-8.42;100.00;97556.53;2627118;28;20482;-91
2022/12/14 03:19:29;;;;;;;40.53;15.05;;;;;;;-8.37;100.00;97560.09;2626550;28;20048;-92
2022/12/14 03:20:49;;;;;;;39.80;14.30;;;;;;;-8.32;100.00;97562.75;2626815;28;20048;-92
2022/12/14 03:22:17;;;;;;;42.28;14.65;;;;;;;-8.28;100.00;97559.53;2627175;28;20138;-93
2022/12/14 03:23:35;;;;;;;46.08;14.55;;;;;;;-8.21;100.00;97558.06;2626382;28;20048;-92
2022/12/14 03:25:00;;;;;;;45.30;15.77;;;;;;;-7.93;100.00;97556.38;2626835;28;20052;-91
2022/12/14 03:26:25;;;;;;;50.10;15.60;;;;;;;-7.91;100.00;97553.84;2626434;28;20047;-91
2022/12/14 03:27:55;;;;;;;41.67;13.70;;;;;;;-7.88;100.00;97552.28;2626646;28;20633;-91
2022/12/14 03:29:37;;;;;;;34.85;14.25;;;;;;;-8.16;100.00;97555.66;2626469;28;20442;-92
2022/12/14 03:31:01;;;;;;;37.20;13.88;;;;;;;-8.22;100.00;97554.63;2626852;28;20490;-92
2022/12/14 03:32:20;;;;;;;43.58;14.43;;;;;;;-8.01;100.00;97551.06;2626786;28;20044;-91
2022/12/14 03:33:37;;;;;;;48.67;16.13;;;;;;;-7.87;100.00;97550.63;2627000;28;20058;-91
2022/12/14 03:35:12;;;;;;;45.78;16.48;;;;;;;-7.83;100.00;97544.81;2626361;28;20052;-92
2022/12/14 03:36:30;;;;;;;46.10;14.15;;;;;;;-7.85;100.00;97556.59;2627039;28;20486;-91
2022/12/14 03:38:10;;;;;;;46.90;15.32;;;;;;;-7.81;100.00;97555.88;2626143;28;20555;-92
2022/12/14 03:39:31;;;;;;;42.50;15.65;;;;;;;-7.89;100.00;97554.75;2626561;28;20079;-92
2022/12/14 03:40:58;;;;;;;47.85;16.85;;;;;;;-7.88;100.00;97548.91;2625588;28;20553;-91
2022/12/14 03:42:36;;;;;;;40.92;15.00;;;;;;;-7.98;100.00;97543.53;2626423;28;20075;-93
2022/12/14 03:44:32;;;;;;;42.20;15.65;;;;;;;-8.15;100.00;97539.59;2625757;28;20190;-92
2022/12/14 03:46:00;;;;;;;36.60;13.13;;;;;;;-8.07;100.00;97543.22;2603880;28;20053;-91
2022/12/14 03:47:37;;;;;;;41.95;14.20;;;;;;;-7.98;100.00;97540.97;2626579;28;20131;-91
2022/12/14 03:49:05;;;;;;;30.58;11.02;;;;;;;-7.95;100.00;97542.75;2626007;28;20129;-93
2022/12/14 03:50:40;;;;;;;33.35;13.95;;;;;;;-8.20;100.00;97536.91;2626967;28;20985;-91
2022/12/14 03:52:05;;;;;;;22.00;10.10;;;;;;;-7.91;100.00;97528.44;2626815;28;20054;-92
2022/12/14 03:53:46;;;;;;;36.17;12.45;;;;;;;-7.82;100.00;97532.16;2625901;28;20355;-93
2022/12/14 03:55:20;;;;;;;39.67;12.80;;;;;;;-7.85;100.00;97524.41;2626361;28;20048;-93
2022/12/14 03:56:43;;;;;;;39.28;12.38;;;;;;;-7.84;100.00;97530.38;2626123;28;20052;-91
2022/12/14 03:58:33;;;;;;;30.58;12.07;;;;;;;-8.00;100.00;97524.84;2626063;28;20090;-93
2022/12/14 04:00:06;;;;;;;33.35;12.77;;;;;;;-7.85;100.00;97526.13;2627001;28;20067;-91
2022/12/14 04:01:42;;;;;;;30.83;13.23;;;;;;;-7.85;100.00;97533.75;2626805;28;20052;-91
2022/12/14 04:03:14;;;;;;;33.88;12.48;;;;;;;-7.71;100.00;97531.59;2626907;28;20135;-91
2022/12/14 04:04:34;;;;;;;35.63;14.70;;;;;;;-7.58;100.00;97533.69;2626345;28;20087;-90
2022/12/14 04:06:05;;;;;;;34.05;13.07;;;;;;;-7.54;100.00;97530.44;2626550;28;20052;-92
2022/12/14 04:07:24;;;;;;;39.80;14.45;;;;;;;-7.89;100.00;97524.28;2625751;28;20052;-91
2022/12/14 04:08:59;;;;;;;32.28;13.23;;;;;;;-7.77;100.00;97526.34;2625796;28;20135;-91
2022/12/14 04:19:30;;;;;;;36.92;13.18;;;;;;;-7.28;100.00;97511.63;2626561;28;20144;-92
2022/12/14 04:20:54;;;;;;;34.78;14.88;;;;;;;-7.55;100.00;97512.56;2626164;28;20091;-91
2022/12/14 04:22:24;;;;;;;39.78;13.73;;;;;;;-7.81;100.00;97508.47;2626202;28;20956;-90
2022/12/14 04:27:31;;;;;;;34.10;12.82;;;;;;;-7.39;100.00;97486.75;2626235;28;20052;-91
2022/12/14 04:30:37;;;;;;;33.83;13.15;;;;;;;-7.59;100.00;97488.75;2625413;28;20565;-93
2022/12/14 04:32:01;;;;;;;36.42;14.60;;;;;;;-7.37;100.00;97485.13;2626989;28;20052;-91
2022/12/14 04:35:01;;;;;;;38.00;13.90;;;;;;;-7.42;100.00;97470.53;2626058;28;20846;-91
2022/12/14 04:36:27;;;;;;;37.35;14.50;;;;;;;-7.39;100.00;97468.94;2625949;28;20055;-91
2022/12/14 04:37:46;;;;;;;37.17;14.32;;;;;;;-7.25;100.00;97471.88;2626038;28;20109;-92
2022/12/14 04:39:17;;;;;;;38.75;13.80;;;;;;;-7.41;100.00;97469.72;2625803;28;20041;-92
2022/12/14 04:40:39;;;;;;;43.90;14.35;;;;;;;-7.27;100.00;97463.31;2626229;28;20056;-91
2022/12/14 04:41:59;;;;;;;43.88;15.55;;;;;;;-7.27;100.00;97468.41;2626321;28;20044;-93
2022/12/14 04:43:19;;;;;;;39.33;15.82;;;;;;;-7.35;100.00;97464.81;2626688;28;20086;-91
2022/12/14 04:44:39;;;;;;;63.58;20.27;;;;;;;-7.24;100.00;97463.44;2628274;28;20052;-91
2022/12/14 04:46:00;;;;;;;55.10;17.88;;;;;;;-7.20;100.00;97468.59;2625030;28;20139;-90
2022/12/14 04:47:18;;;;;;;45.53;16.58;;;;;;;-7.24;100.00;97467.66;2628386;28;20498;-91
2022/12/14 04:48:53;;;;;;;40.60;14.18;;;;;;;-7.34;100.00;97463.13;2628389;28;20429;-90
2022/12/14 04:50:15;;;;;;;38.72;14.45;;;;;;;-7.30;100.00;97475.13;2627879;28;20084;-91
2022/12/14 04:51:41;;;;;;;39.17;13.73;;;;;;;-7.29;100.00;97470.06;2628263;28;20055;-91
2022/12/14 04:53:06;;;;;;;34.10;12.80;;;;;;;-7.33;100.00;97465.72;2628298;28;20575;-93
2022/12/14 04:54:25;;;;;;;33.13;13.52;;;;;;;-7.07;100.00;97468.09;2628293;28;20054;-92
2022/12/14 04:56:08;;;;;;;42.85;15.13;;;;;;;-6.93;100.00;97463.34;2627869;28;20152;-92
2022/12/14 04:57:28;;;;;;;33.28;13.20;;;;;;;-6.84;100.00;97455.94;2622680;28;20657;-90
2022/12/14 04:58:43;;;;;;;42.85;15.55;;;;;;;-6.93;100.00;97457.41;2627790;28;20139;-91
2022/12/14 05:00:00;;;;;;;36.60;14.88;;;;;;;-6.95;100.00;97455.69;2628288;28;20059;-90
2022/12/14 05:01:50;;;;;;;47.22;16.17;;;;;;;-7.01;100.00;97452.97;2627240;28;20052;-91
2022/12/14 05:03:26;;;;;;;33.85;12.75;;;;;;;-6.98;100.00;97445.44;2627983;28;20048;-91
2022/12/14 05:05:06;;;;;;;44.42;13.85;;;;;;;-6.82;100.00;97446.66;2627972;28;20044;-92
2022/12/14 05:06:30;;;;;;;35.13;14.55;;;;;;;-6.76;100.00;97437.47;2627043;28;20048;-90
2022/12/14 05:07:56;;;;;;;39.78;15.57;;;;;;;-6.84;100.00;97443.22;2627843;28;20083;-91
2022/12/14 05:09:24;;;;;;;43.55;13.95;;;;;;;-7.00;100.00;97447.06;2627674;28;20052;-91
2022/12/14 05:10:49;;;;;;;39.17;13.98;;;;;;;-6.90;100.00;97443.09;2626978;28;20059;-90
2022/12/14 05:12:14;;;;;;;36.65;14.13;;;;;;;-7.06;100.00;97453.69;2626825;28;20127;-92
2022/12/14 05:13:45;;;;;;;30.90;12.23;;;;;;;-7.22;100.00;97450.75;2627593;28;20125;-90
2022/12/14 05:15:08;;;;;;;42.20;14.10;;;;;;;-7.28;100.00;97455.69;2627475;28;20062;-90
2022/12/14 05:16:23;;;;;;;;;;;;;;;-7.25;100.00;97454.09;2627765;28;20668;-91
2022/12/14 05:17:40;;;;;;;36.63;13.73;;;;;;;-6.96;100.00;97453.97;2627780;28;19924;-91
2022/12/14 05:18:56;;;;;;;39.40;15.00;;;;;;;-7.00;100.00;97441.97;2627534;28;20520;-93
2022/12/14 05:20:18;;;;;;;47.13;15.80;;;;;;;-6.82;100.00;97438.19;2626364;28;20040;-90
2022/12/14 05:21:46;;;;;;;33.83;13.88;;;;;;;-6.97;100.00;97436.97;2627874;28;20127;-90
2022/12/14 05:23:02;;;;;;;35.00;12.63;;;;;;;-6.95;100.00;97437.88;2627608;28;20048;-91
2022/12/14 05:24:18;;;;;;;36.75;13.60;;;;;;;-6.94;100.00;97436.19;2627668;28;20418;-92
2022/12/14 05:25:33;;;;;;;41.47;14.93;;;;;;;-6.84;100.00;97430.50;2627846;28;20051;-92
2022/12/14 05:26:49;;;;;;;41.25;14.90;;;;;;;-6.78;100.00;97424.69;2627949;28;20059;-91
2022/12/14 05:28:04;;;;;;;37.92;15.07;;;;;;;-6.58;100.00;97425.19;2627466;28;20839;-91
2022/12/14 05:29:20;;;;;;;42.83;16.08;;;;;;;-6.53;100.00;97432.94;2628201;28;20060;-91
2022/12/14 05:30:36;;;;;;;47.35;16.42;;;;;;;-6.74;100.00;97423.94;2627896;28;20056;-92
2022/12/14 05:31:51;;;;;;;50.25;16.63;;;;;;;-6.83;100.00;97421.19;2627932;28;20300;-91
2022/12/14 05:33:18;;;;;;;36.30;14.10;;;;;;;-6.87;100.00;97427.00;2627293;28;20131;-90
2022/12/14 05:34:34;;;;;;;37.97;14.07;;;;;;;-6.80;100.00;97418.72;2626974;28;20068;-91
2022/12/14 05:35:49;;;;;;;45.88;16.95;;;;;;;-6.74;100.00;97415.47;2627020;28;20101;-90
2022/12/14 05:37:05;;;;;;;39.10;15.15;;;;;;;-6.60;100.00;97411.56;2625115;28;20044;-90
2022/12/14 05:38:21;;;;;;;41.13;15.25;;;;;;;-6.74;100.00;97418.84;2625074;28;20413;-90
2022/12/14 05:39:36;;;;;;;47.38;16.55;;;;;;;-6.52;100.00;97415.13;2625509;28;20214;-91
2022/12/14 05:40:52;;;;;;;44.00;15.32;;;;;;;-6.57;100.00;97408.19;2621785;28;20059;-90
2022/12/14 05:42:07;;;;;;;42.25;17.15;;;;;;;-6.51;100.00;97403.25;2621445;28;20055;-90
2022/12/14 05:43:23;;;;;;;41.42;15.60;;;;;;;-6.58;100.00;97409.03;2621724;28;20053;-91
2022/12/14 05:44:39;;;;;;;36.83;14.43;;;;;;;-6.58;100.00;97403.94;2621125;28;20048;-91
2022/12/14 05:46:01;;;;;;;45.33;17.15;;;;;;;-6.52;100.00;97409.19;2622491;28;20048;-91
2022/12/14 05:47:16;;;;;;;42.03;14.65;;;;;;;-6.53;100.00;97407.47;2621198;28;20044;-89
2022/12/14 05:48:34;;;;;;;48.40;16.58;;;;;;;-6.57;100.00;97410.75;2622509;28;20051;-91
2022/12/14 05:49:50;;;;;;;42.75;15.25;;;;;;;-6.81;100.00;97414.44;2622602;28;20559;-92
2022/12/14 05:51:11;;;;;;;47.95;16.13;;;;;;;-6.49;100.00;97408.41;2621624;28;20045;-90
2022/12/14 05:52:26;;;;;;;43.10;16.55;;;;;;;-6.50;100.00;97410.06;2621562;28;20093;-91
2022/12/14 05:53:42;;;;;;;46.17;15.75;;;;;;;-6.69;100.00;97399.47;2622924;28;20074;-91
2022/12/14 05:54:58;;;;;;;40.80;15.32;;;;;;;-6.57;100.00;97405.66;2621334;28;20051;-90
2022/12/14 05:56:13;;;;;;;50.08;17.38;;;;;;;-6.52;100.00;97402.38;2621222;28;20501;-91
2022/12/14 05:57:30;;;;;;;45.65;16.95;;;;;;;-6.50;100.00;97399.00;2622821;28;20121;-91
2022/12/14 05:58:48;;;;;;;44.50;15.25;;;;;;;-6.65;100.00;97399.53;2621294;28;20044;-91
2022/12/14 06:00:05;;;;;;;37.90;16.95;;;;;;;-6.69;100.00;97399.47;2620970;28;20078;-91
2022/12/14 06:01:20;;;;;;;40.53;16.88;;;;;;;-6.67;100.00;97397.81;2620682;28;20040;-90
2022/12/14 06:02:35;;;;;;;52.42;17.83;;;;;;;-6.70;100.00;97394.34;2621131;28;20040;-92
2022/12/14 06:03:51;;;;;;;40.00;15.07;;;;;;;-6.75;100.00;97396.78;2621089;28;20055;-91
2022/12/14 06:05:07;;;;;;;38.20;14.65;;;;;;;-6.59;100.00;97399.66;2621740;28;20056;-91
2022/12/14 06:06:23;;;;;;;49.97;17.67;;;;;;;-6.42;100.00;97392.41;2621755;28;20093;-91
2022/12/14 06:07:38;;;;;;;41.33;16.48;;;;;;;-6.60;100.00;97395.41;2622794;28;20472;-91
2022/12/14 06:08:54;;;;;;;39.97;15.27;;;;;;;-6.42;100.00;97389.88;2619694;28;20044;-91
2022/12/14 06:10:10;;;;;;;42.42;15.75;;;;;;;-6.25;100.00;97380.91;2620455;28;20445;-91
2022/12/14 06:11:25;;;;;;;44.08;15.65;;;;;;;-6.24;100.00;97380.06;2621438;28;20053;-93
2022/12/14 06:12:40;;;;;;;44.58;15.90;;;;;;;-6.35;100.00;97375.59;2623647;28;20044;-96
2022/12/14 06:13:56;;;;;;;44.10;16.05;;;;;;;-6.29;100.00;97380.81;2623308;28;20486;-86
2022/12/14 06:15:12;;;;;;;48.03;16.25;;;;;;;-6.19;100.00;97375.09;2621114;28;20132;-87
2022/12/14 06:16:28;;;;;;;42.53;16.45;;;;;;;-6.39;100.00;97374.66;2620459;28;20055;-85
2022/12/14 06:17:44;;;;;;;41.95;14.52;;;;;;;-6.38;100.00;97371.28;2620446;28;20700;-86
2022/12/14 06:19:03;;;;;;;36.00;15.90;;;;;;;-6.37;100.00;97365.34;2621265;28;20052;-86
2022/12/14 06:20:19;;;;;;;42.65;16.60;;;;;;;-6.24;100.00;97362.25;2620263;28;20048;-87
2022/12/14 06:21:37;;;;;;;45.35;15.07;;;;;;;-6.20;100.00;97350.44;2621307;28;20063;-86
2022/12/14 06:22:53;;;;;;;42.13;16.02;;;;;;;-6.12;100.00;97345.50;2621458;28;20056;-86
2022/12/14 06:24:11;;;;;;;41.42;14.82;;;;;;;-6.15;100.00;97338.63;2621435;28;20063;-86
2022/12/14 06:25:26;;;;;;;43.53;15.55;;;;;;;-6.14;100.00;97337.84;2619204;28;20427;-92
2022/12/14 06:26:42;;;;;;;38.22;15.05;;;;;;;-6.23;100.00;97337.66;2623173;28;20056;-86